Main page
METAR-TAF:

METAR-TAF

Airports :

Albert, France

Albert – Picardie Airport

latitude: 49-58-21N, longitude: 002-41-29E, elevation: 111 m

Current weather observation

The report was made 29 minutes ago, at 02:00 UTC
Wind 4 kt from the West/Northwest
Temperature 1°C
Humidity 100%
Pressure 1022 hPa
Visibility: 6000 m
Broken clouds at a height of 1900 ft

METAR: LFAQ 170200Z AUTO 30004KT 6000 BKN019 01/01 Q1022

Time: 03:29 (02:29 UTC)

Forecast

The report was made 12 hours and 29 minutes ago, at 14:00 UTC
Forecast valid from 16 at 15 UTC to 16 at 24 UTC
Wind 10 kt from the West/Northwest
Visibility 10 km or more
Broken clouds at a height of 1800 ft
Becoming
from 16 at 22 UTC to 16 at 24 UTC
Visibility: 2000 m
Overcast at a height of 300 ft
mist

TAF: LFAQ 161400Z 1615/1624 30010KT 9999 BKN018 BECMG 1622/1624 2000 BR OVC003

Weather observations and forecasts of more than 4000 airports (METAR and TAF reports).

The available stations are represented by yellow and red dots on the map.

Hover mouse over dot to see the name of the station.

Then click to see weather observations and forecasts.

To change the map : click on the green buttons with a black cross to zoom in, on the green button with a dash to zoom out, or on the green arrows for adjacent maps.


METAR-TAF: